createdAt,value
2023-02-19T00:01:49.136Z,-0.41
2023-02-19T00:04:19.374Z,-0.76
2023-02-19T00:06:49.804Z,-0.45
2023-02-19T00:09:19.975Z,-0.47
2023-02-19T00:11:48.608Z,-0.72
2023-02-19T00:14:18.471Z,-0.56
2023-02-19T00:16:47.111Z,-0.61
2023-02-19T00:19:18.022Z,-0.54
2023-02-19T00:21:45.883Z,-0.57
2023-02-19T00:24:15.912Z,-0.67
2023-02-19T00:26:45.199Z,-1.11
2023-02-19T00:29:15.825Z,-0.72
2023-02-19T00:31:44.291Z,-0.62
2023-02-19T00:34:13.615Z,-0.75
2023-02-19T00:36:43.306Z,-0.91
2023-02-19T00:39:16.434Z,-0.66
2023-02-19T00:41:44.651Z,-0.67
2023-02-19T00:44:13.730Z,-0.72
2023-02-19T00:46:43.286Z,-0.70
2023-02-19T00:49:17.544Z,-0.70
2023-02-19T00:51:45.637Z,-0.73
2023-02-19T00:54:15.632Z,-0.81
2023-02-19T00:56:43.888Z,-0.78
2023-02-19T00:59:12.208Z,-1.10
2023-02-19T01:01:40.133Z,-1.02
2023-02-19T01:04:08.455Z,-0.76
2023-02-19T01:06:37.101Z,-0.77
2023-02-19T01:09:05.997Z,-1.10
2023-02-19T01:11:35.288Z,-0.79
2023-02-19T01:14:03.761Z,-0.85
2023-02-19T01:16:32.037Z,-0.86
2023-02-19T01:19:00.210Z,-1.20
2023-02-19T01:21:30.214Z,-0.89
2023-02-19T01:23:58.931Z,-0.89
2023-02-19T01:26:29.288Z,-0.89
2023-02-19T01:28:58.785Z,-0.90
2023-02-19T01:31:27.173Z,-1.04
2023-02-19T01:33:58.448Z,-0.95
2023-02-19T01:36:27.718Z,-1.41
2023-02-19T01:38:55.773Z,-0.96
2023-02-19T01:41:25.305Z,-0.96
2023-02-19T01:44:00.541Z,-1.55
2023-02-19T01:46:29.867Z,-0.96
2023-02-19T01:49:01.426Z,-1.03
2023-02-19T01:51:31.398Z,-0.97
2023-02-19T01:54:03.470Z,-1.11
2023-02-19T01:56:34.907Z,-1.21
2023-02-19T01:59:04.278Z,-0.97
2023-02-19T02:01:32.233Z,-1.24
2023-02-19T02:04:01.136Z,-1.10
2023-02-19T02:06:34.375Z,-1.00
2023-02-19T02:09:21.928Z,-1.08
2023-02-19T02:11:52.591Z,-1.01
2023-02-19T02:14:25.710Z,-1.08
2023-02-19T02:16:59.977Z,-1.06
2023-02-19T02:19:44.651Z,-1.06
2023-02-19T02:22:18.415Z,-1.05
2023-02-19T02:25:22.712Z,-1.06
2023-02-19T02:27:58.183Z,-1.14
2023-02-19T02:30:37.950Z,-1.05
2023-02-19T02:33:15.934Z,-1.05
2023-02-19T02:35:48.875Z,-1.04
2023-02-19T02:38:19.560Z,-1.04
2023-02-19T02:40:48.778Z,-1.08
2023-02-19T02:43:16.669Z,-1.05
2023-02-19T02:45:46.141Z,-1.08
2023-02-19T02:48:23.742Z,-1.08
2023-02-19T02:50:54.980Z,-1.10
2023-02-19T02:53:46.037Z,-1.25
2023-02-19T02:56:16.119Z,-1.39
2023-02-19T02:58:45.405Z,-1.53
2023-02-19T03:01:37.195Z,-1.12
2023-02-19T03:04:09.973Z,-1.12
2023-02-19T03:06:39.740Z,-1.24
2023-02-19T03:09:12.496Z,-1.16
2023-02-19T03:12:02.477Z,-1.18
2023-02-19T03:14:54.658Z,-1.17
2023-02-19T03:17:48.370Z,-1.17
2023-02-19T03:20:20.857Z,-1.16
2023-02-19T03:22:51.724Z,-1.19
2023-02-19T03:25:40.082Z,-1.34
2023-02-19T03:28:11.201Z,-1.19
2023-02-19T03:30:44.857Z,-1.41
2023-02-19T03:33:17.051Z,-1.25
2023-02-19T03:35:48.027Z,-1.83
2023-02-19T03:38:22.016Z,-1.51
2023-02-19T03:40:57.641Z,-1.51
2023-02-19T03:43:35.379Z,-1.30
2023-02-19T03:46:10.499Z,-1.29
2023-02-19T03:48:47.912Z,-1.35
2023-02-19T03:51:28.736Z,-1.27
2023-02-19T03:54:06.420Z,-1.25
2023-02-19T03:56:39.680Z,-1.28
2023-02-19T03:59:14.476Z,-1.19
2023-02-19T04:01:47.091Z,-1.19
2023-02-19T04:04:19.779Z,-1.18
2023-02-19T04:06:54.722Z,-1.13
2023-02-19T04:09:24.997Z,-1.14
2023-02-19T04:11:54.570Z,-1.15
2023-02-19T04:14:27.142Z,-1.13
2023-02-19T04:17:00.622Z,-1.12
2023-02-19T04:19:34.756Z,-1.55
2023-02-19T04:22:03.234Z,-1.48
2023-02-19T04:24:36.113Z,-1.08
2023-02-19T04:27:06.170Z,-1.40
2023-02-19T04:29:34.097Z,-1.02
2023-02-19T04:32:02.344Z,-1.05
2023-02-19T04:34:31.584Z,-0.97
2023-02-19T04:36:59.594Z,-0.93
2023-02-19T04:39:27.603Z,-0.89
2023-02-19T04:41:55.508Z,-1.00
2023-02-19T04:44:23.417Z,-0.83
2023-02-19T04:46:51.367Z,-0.80
2023-02-19T04:49:19.186Z,-0.78
2023-02-19T04:51:48.494Z,-0.76
2023-02-19T04:54:16.419Z,-0.75
2023-02-19T04:56:44.250Z,-0.76
2023-02-19T04:59:12.343Z,-0.79
2023-02-19T05:01:40.295Z,-1.07
2023-02-19T05:04:08.202Z,-0.87
2023-02-19T05:06:36.099Z,-0.99
2023-02-19T05:09:05.511Z,-1.03
2023-02-19T05:11:33.317Z,-0.94
2023-02-19T05:14:01.451Z,-0.96
2023-02-19T05:16:29.639Z,-0.96
2023-02-19T05:18:57.509Z,-1.28
2023-02-19T05:21:25.505Z,-0.99
2023-02-19T05:23:53.564Z,-1.00
2023-02-19T05:26:24.610Z,-1.02
2023-02-19T05:28:54.012Z,-1.02
2023-02-19T05:31:22.807Z,-1.19
2023-02-19T05:33:51.454Z,-1.32
2023-02-19T05:36:21.508Z,-1.05
2023-02-19T05:38:52.948Z,-1.10
2023-02-19T05:41:23.580Z,-1.12
2023-02-19T05:43:51.984Z,-1.14
2023-02-19T05:46:22.032Z,-1.13
2023-02-19T05:48:50.603Z,-1.14
2023-02-19T05:51:20.084Z,-1.56
2023-02-19T05:53:48.521Z,-1.20
2023-02-19T05:56:27.812Z,-1.23
2023-02-19T05:58:56.319Z,-1.27
2023-02-19T06:01:27.065Z,-1.33
2023-02-19T06:03:57.375Z,-1.28
2023-02-19T06:06:26.652Z,-1.29
2023-02-19T06:08:55.137Z,-1.69
2023-02-19T06:11:24.980Z,-1.32
2023-02-19T06:13:53.055Z,-1.32
2023-02-19T06:16:22.063Z,-1.35
2023-02-19T06:18:51.130Z,-1.55
2023-02-19T06:21:20.053Z,-1.45
2023-02-19T06:23:48.549Z,-1.42
2023-02-19T06:26:18.842Z,-1.42
2023-02-19T06:28:49.946Z,-1.42
2023-02-19T06:31:19.065Z,-1.51
2023-02-19T06:33:47.345Z,-1.66
2023-02-19T06:36:18.042Z,-1.41
2023-02-19T06:38:46.207Z,-1.56
2023-02-19T06:41:14.804Z,-1.66
2023-02-19T06:43:43.292Z,-1.69
2023-02-19T06:46:13.733Z,-1.53
2023-02-19T06:48:42.936Z,-1.41
2023-02-19T06:51:13.248Z,-1.39
2023-02-19T06:53:41.200Z,-1.70
2023-02-19T06:56:23.582Z,-1.40
2023-02-19T06:58:52.007Z,-1.34
2023-02-19T07:01:21.616Z,-1.31
2023-02-19T07:03:49.829Z,-1.28
2023-02-19T07:06:17.719Z,-1.26
2023-02-19T07:08:45.700Z,-1.20
2023-02-19T07:11:13.834Z,-1.13
2023-02-19T07:13:41.622Z,-0.99
2023-02-19T07:16:11.327Z,-0.82
2023-02-19T07:18:41.699Z,-0.63
2023-02-19T07:21:12.181Z,-0.45
2023-02-19T07:23:40.800Z,-0.27
2023-02-19T07:26:10.558Z,-0.09
2023-02-19T07:28:38.474Z,-0.01
2023-02-19T07:31:06.645Z,0.05
2023-02-19T07:33:35.079Z,0.29
2023-02-19T07:36:04.387Z,0.55
2023-02-19T07:38:32.337Z,0.71
2023-02-19T07:41:02.456Z,0.90
2023-02-19T07:43:32.493Z,1.04
2023-02-19T07:46:03.726Z,1.13
2023-02-19T07:48:31.635Z,1.03
2023-02-19T07:51:01.166Z,1.12
2023-02-19T07:53:30.729Z,1.16
2023-02-19T07:56:02.045Z,1.07
2023-02-19T07:58:30.317Z,1.36
2023-02-19T08:00:58.738Z,1.64
2023-02-19T08:03:25.770Z,1.92
2023-02-19T08:05:55.145Z,2.30
2023-02-19T08:08:23.062Z,2.51
2023-02-19T08:11:10.205Z,2.48
2023-02-19T08:13:38.483Z,2.31
2023-02-19T08:16:21.747Z,2.86
2023-02-19T08:18:52.521Z,3.24
2023-02-19T08:21:20.691Z,3.08
2023-02-19T08:23:51.165Z,3.43
2023-02-19T08:26:20.966Z,3.59
2023-02-19T08:28:49.942Z,3.57
2023-02-19T08:31:17.893Z,3.54
2023-02-19T08:33:45.958Z,3.46
2023-02-19T08:36:13.880Z,3.33
2023-02-19T08:38:41.746Z,3.21
2023-02-19T08:41:11.794Z,3.35
2023-02-19T08:43:41.767Z,3.50
2023-02-19T08:46:11.479Z,3.45
2023-02-19T08:48:40.199Z,3.59
2023-02-19T08:51:10.792Z,3.91
2023-02-19T08:53:40.451Z,3.92
2023-02-19T08:56:09.406Z,4.17
2023-02-19T08:58:37.567Z,4.41
2023-02-19T09:01:10.295Z,4.52
2023-02-19T09:03:38.627Z,4.62
2023-02-19T09:06:06.909Z,4.55
2023-02-19T09:08:34.805Z,4.44
2023-02-19T09:11:04.683Z,4.46
2023-02-19T09:13:32.856Z,4.52
2023-02-19T09:16:00.799Z,4.63
2023-02-19T09:18:30.103Z,4.84
2023-02-19T09:21:01.282Z,4.96
2023-02-19T09:23:29.396Z,5.27
2023-02-19T09:26:01.138Z,5.51
2023-02-19T09:28:29.224Z,5.42
2023-02-19T09:30:57.126Z,5.49
2023-02-19T09:33:25.160Z,5.11
2023-02-19T09:35:54.338Z,5.53
2023-02-19T09:38:22.179Z,5.74
2023-02-19T09:40:50.189Z,5.58
2023-02-19T09:43:20.419Z,5.17
2023-02-19T09:45:49.407Z,5.36
2023-02-19T09:48:17.510Z,5.51
2023-02-19T09:50:49.753Z,5.33
2023-02-19T09:53:23.268Z,5.71
2023-02-19T09:55:53.669Z,5.75
2023-02-19T09:58:30.067Z,5.67
2023-02-19T10:01:01.154Z,5.66
2023-02-19T10:03:34.460Z,5.63
2023-02-19T10:06:06.455Z,5.99
2023-02-19T10:08:38.036Z,5.99
2023-02-19T10:11:07.019Z,6.21
2023-02-19T10:13:38.911Z,6.28
2023-02-19T10:16:11.426Z,6.01
2023-02-19T10:18:42.489Z,5.93
2023-02-19T10:21:15.431Z,5.88
2023-02-19T10:23:45.646Z,6.03
2023-02-19T10:26:13.516Z,6.03
2023-02-19T10:28:41.355Z,5.90
2023-02-19T10:31:20.561Z,5.91
2023-02-19T10:33:52.742Z,5.57
2023-02-19T10:36:31.891Z,5.61
2023-02-19T10:39:03.668Z,5.62
2023-02-19T10:41:32.552Z,5.31
2023-02-19T10:44:06.647Z,5.14
2023-02-19T10:46:37.568Z,4.33
2023-02-19T10:49:07.497Z,5.33
2023-02-19T10:51:38.929Z,5.51
2023-02-19T10:54:16.757Z,5.53
2023-02-19T10:56:44.837Z,5.53
2023-02-19T10:59:24.632Z,5.75
2023-02-19T11:01:57.783Z,6.21
2023-02-19T11:04:27.954Z,6.30
2023-02-19T11:06:57.659Z,6.39
2023-02-19T11:09:33.932Z,6.31
2023-02-19T11:12:05.114Z,6.04
2023-02-19T11:14:35.006Z,6.12
2023-02-19T11:17:05.934Z,6.14
2023-02-19T11:19:39.329Z,6.11
2023-02-19T11:22:30.564Z,6.24
2023-02-19T11:25:06.498Z,6.40
2023-02-19T11:27:34.862Z,6.22
2023-02-19T11:30:35.750Z,6.74
2023-02-19T11:33:28.261Z,6.47
2023-02-19T11:36:18.000Z,6.63
2023-02-19T11:38:46.106Z,6.95
2023-02-19T11:41:24.219Z,6.99
2023-02-19T11:44:08.751Z,6.96
2023-02-19T11:46:45.069Z,6.87
2023-02-19T11:49:27.435Z,6.90
2023-02-19T11:52:22.527Z,6.79
2023-02-19T11:54:54.668Z,6.82
2023-02-19T11:57:42.602Z,6.96
2023-02-19T12:00:26.301Z,6.67
2023-02-19T12:03:18.587Z,7.12
2023-02-19T12:05:57.778Z,7.32
2023-02-19T12:08:50.002Z,7.27
2023-02-19T12:11:34.290Z,7.19
2023-02-19T12:14:41.527Z,7.28
2023-02-19T12:17:18.823Z,7.16
2023-02-19T12:20:01.630Z,6.84
2023-02-19T12:22:32.056Z,6.59
2023-02-19T12:25:19.806Z,6.33
2023-02-19T12:27:59.189Z,6.27
2023-02-19T12:30:44.970Z,6.56
2023-02-19T12:33:33.669Z,6.78
2023-02-19T12:36:12.385Z,6.77
2023-02-19T12:38:45.721Z,7.42
2023-02-19T12:41:28.054Z,7.59
2023-02-19T12:44:01.395Z,7.82
2023-02-19T12:46:35.096Z,7.81
2023-02-19T12:49:11.907Z,7.77
2023-02-19T12:51:45.061Z,7.43
2023-02-19T12:54:19.194Z,7.37
2023-02-19T12:56:51.415Z,7.47
2023-02-19T12:59:25.518Z,7.83
2023-02-19T13:02:03.056Z,7.90
2023-02-19T13:04:42.228Z,8.28
2023-02-19T13:07:15.693Z,8.55
2023-02-19T13:09:49.658Z,8.68
2023-02-19T13:12:24.732Z,8.68
2023-02-19T13:14:58.118Z,8.65
2023-02-19T13:17:33.164Z,8.84
2023-02-19T13:20:09.717Z,8.94
2023-02-19T13:23:03.116Z,8.84
2023-02-19T13:25:47.537Z,8.94
2023-02-19T13:28:28.136Z,8.19
2023-02-19T13:31:18.131Z,9.07
2023-02-19T13:34:00.643Z,9.36
2023-02-19T13:36:30.848Z,9.22
2023-02-19T13:39:00.457Z,8.94
2023-02-19T13:41:31.036Z,9.28
2023-02-19T13:44:02.536Z,9.17
2023-02-19T13:46:38.570Z,9.35
2023-02-19T13:49:44.818Z,9.03
2023-02-19T13:52:41.050Z,9.18
2023-02-19T13:55:51.491Z,9.57
2023-02-19T13:58:39.782Z,9.39
2023-02-19T14:01:09.383Z,9.59
2023-02-19T14:03:54.396Z,8.73
2023-02-19T14:06:23.591Z,8.99
2023-02-19T14:08:57.202Z,8.74
2023-02-19T14:12:02.322Z,9.04
2023-02-19T14:14:36.690Z,9.34
2023-02-19T14:17:25.653Z,9.36
2023-02-19T14:19:56.291Z,8.43
2023-02-19T14:22:52.757Z,7.28
2023-02-19T14:25:29.633Z,6.09
2023-02-19T14:28:02.617Z,5.82
2023-02-19T14:30:32.831Z,5.29
2023-02-19T14:33:10.654Z,4.83
2023-02-19T14:35:42.506Z,4.74
2023-02-19T14:38:19.237Z,4.54
2023-02-19T14:40:49.735Z,2.50
2023-02-19T14:43:20.668Z,3.73
2023-02-19T14:45:50.578Z,4.03
2023-02-19T14:48:23.441Z,3.81
2023-02-19T14:50:55.060Z,3.67
2023-02-19T14:53:25.715Z,3.43
2023-02-19T14:55:55.835Z,3.45
2023-02-19T14:58:27.556Z,3.35
2023-02-19T15:00:55.676Z,3.23
2023-02-19T15:03:32.886Z,2.91
2023-02-19T15:06:06.140Z,3.08
2023-02-19T15:08:38.951Z,3.02
2023-02-19T15:11:12.783Z,2.72
2023-02-19T15:13:45.710Z,2.76
2023-02-19T15:16:19.355Z,2.79
2023-02-19T15:18:48.617Z,2.58
2023-02-19T15:21:25.070Z,2.64
2023-02-19T15:23:56.123Z,2.32
2023-02-19T15:26:28.501Z,2.01
2023-02-19T15:29:01.148Z,2.07
2023-02-19T15:31:29.980Z,2.20
2023-02-19T15:33:58.034Z,2.31
2023-02-19T15:36:29.504Z,2.27
2023-02-19T15:39:01.850Z,1.65
2023-02-19T15:41:34.665Z,1.19
2023-02-19T15:44:25.601Z,2.14
2023-02-19T15:46:54.399Z,2.10
2023-02-19T15:49:31.023Z,1.42
2023-02-19T15:52:04.813Z,1.97
2023-02-19T15:54:40.122Z,1.91
2023-02-19T15:57:15.644Z,1.49
2023-02-19T15:59:48.641Z,1.66
2023-02-19T16:02:17.329Z,1.72
2023-02-19T16:04:46.665Z,1.20
2023-02-19T16:07:25.724Z,1.67
2023-02-19T16:10:17.265Z,1.61
2023-02-19T16:12:50.982Z,1.38
2023-02-19T16:15:21.373Z,1.54
2023-02-19T16:17:49.438Z,1.50
2023-02-19T16:20:22.455Z,1.46
2023-02-19T16:22:51.555Z,1.44
2023-02-19T16:25:31.030Z,1.43
2023-02-19T16:27:59.691Z,1.37
2023-02-19T16:30:34.187Z,1.34
2023-02-19T16:33:34.852Z,1.19
2023-02-19T16:36:35.354Z,1.26
2023-02-19T16:39:20.190Z,1.22
2023-02-19T16:42:19.940Z,1.18
2023-02-19T16:44:48.882Z,1.00
2023-02-19T16:47:38.538Z,1.10
2023-02-19T16:50:14.398Z,1.15
2023-02-19T16:52:52.454Z,1.12
2023-02-19T16:55:20.360Z,1.12
2023-02-19T16:57:50.406Z,0.79
2023-02-19T17:00:19.910Z,1.10
2023-02-19T17:02:48.599Z,1.10
2023-02-19T17:05:16.997Z,1.08
2023-02-19T17:07:44.964Z,1.04
2023-02-19T17:10:15.318Z,0.05
2023-02-19T17:12:43.570Z,0.96
2023-02-19T17:15:13.046Z,0.93
2023-02-19T17:17:41.472Z,0.67
2023-02-19T17:20:22.928Z,0.88
2023-02-19T17:22:51.103Z,0.84
2023-02-19T17:25:19.003Z,0.84
2023-02-19T17:27:46.961Z,0.82
2023-02-19T17:30:21.029Z,0.79
2023-02-19T17:32:49.090Z,0.61
2023-02-19T17:35:17.300Z,0.58
2023-02-19T17:37:45.147Z,0.67
2023-02-19T17:40:32.126Z,0.73
2023-02-19T17:43:01.081Z,0.71
2023-02-19T17:45:30.557Z,0.54
2023-02-19T17:47:58.733Z,0.66
2023-02-19T17:50:29.486Z,0.57
2023-02-19T17:52:57.679Z,0.65
2023-02-19T17:55:26.039Z,0.59
2023-02-19T17:57:54.537Z,0.65
2023-02-19T18:00:24.732Z,0.19
2023-02-19T18:02:54.448Z,0.62
2023-02-19T18:05:22.752Z,0.60
2023-02-19T18:07:51.930Z,0.58
2023-02-19T18:10:21.707Z,0.56
2023-02-19T18:12:49.611Z,0.44
2023-02-19T18:15:20.702Z,0.51
2023-02-19T18:17:48.870Z,0.51
2023-02-19T18:20:23.083Z,-0.06
2023-02-19T18:22:51.751Z,0.48
2023-02-19T18:25:20.935Z,-0.70
2023-02-19T18:27:49.723Z,-0.61
2023-02-19T18:30:19.703Z,-0.26
2023-02-19T18:32:48.771Z,-0.90
2023-02-19T18:35:20.409Z,0.05
2023-02-19T18:37:51.735Z,0.39
2023-02-19T18:40:20.692Z,0.37
2023-02-19T18:42:48.716Z,0.04
2023-02-19T18:45:16.829Z,-0.63
2023-02-19T18:47:47.636Z,0.33
2023-02-19T18:50:16.241Z,0.30
2023-02-19T18:52:45.584Z,0.00
2023-02-19T18:55:13.493Z,-0.16
2023-02-19T18:57:41.636Z,0.26
2023-02-19T19:00:10.562Z,-0.21
2023-02-19T19:02:48.834Z,0.19
2023-02-19T19:05:21.425Z,0.04
2023-02-19T19:07:50.979Z,0.00
2023-02-19T19:10:19.442Z,0.16
2023-02-19T19:12:47.915Z,-0.46
2023-02-19T19:15:18.331Z,-0.23
2023-02-19T19:17:46.849Z,-0.99
2023-02-19T19:20:15.512Z,-0.38
2023-02-19T19:22:43.364Z,-0.24
2023-02-19T19:25:12.989Z,-0.52
2023-02-19T19:27:40.902Z,-0.35
2023-02-19T19:30:09.796Z,-0.01
2023-02-19T19:32:37.898Z,0.00
2023-02-19T19:35:06.345Z,-0.02
2023-02-19T19:37:34.217Z,-0.51
2023-02-19T19:40:03.956Z,-0.04
2023-02-19T19:42:33.306Z,-0.34
2023-02-19T19:45:01.261Z,-0.07
2023-02-19T19:47:29.287Z,-0.72
2023-02-19T19:49:57.267Z,-0.12
2023-02-19T19:52:25.166Z,-0.13
2023-02-19T19:54:54.115Z,-0.17
2023-02-19T19:57:22.203Z,-0.16
2023-02-19T19:59:52.093Z,-0.21
2023-02-19T20:02:20.906Z,-0.20
2023-02-19T20:04:48.860Z,-0.20
2023-02-19T20:07:16.824Z,-0.22
2023-02-19T20:09:48.163Z,-0.25
2023-02-19T20:12:16.187Z,-0.42
2023-02-19T20:14:46.755Z,-0.30
2023-02-19T20:17:16.379Z,-0.31
2023-02-19T20:19:44.308Z,-0.49
2023-02-19T20:22:12.585Z,-0.65
2023-02-19T20:24:40.506Z,-0.38
2023-02-19T20:27:09.061Z,-1.22
2023-02-19T20:29:36.999Z,-2.23
2023-02-19T20:32:05.163Z,-0.42
2023-02-19T20:34:34.601Z,-0.64
2023-02-19T20:37:02.566Z,-0.47
2023-02-19T20:39:30.642Z,-0.47
2023-02-19T20:42:00.387Z,-0.79
2023-02-19T20:44:29.841Z,-1.03
2023-02-19T20:46:59.406Z,-0.75
2023-02-19T20:49:29.598Z,-0.54
2023-02-19T20:52:00.705Z,-0.54
2023-02-19T20:54:30.756Z,-0.54
2023-02-19T20:57:00.847Z,-0.56
2023-02-19T20:59:34.938Z,-0.62
2023-02-19T21:02:03.834Z,-0.61
2023-02-19T21:04:31.823Z,-0.62
2023-02-19T21:07:01.213Z,-0.82
2023-02-19T21:09:29.030Z,-0.66
2023-02-19T21:11:58.511Z,-0.69
2023-02-19T21:14:27.540Z,-0.71
2023-02-19T21:16:55.442Z,-0.72
2023-02-19T21:19:23.383Z,-0.78
2023-02-19T21:21:51.362Z,-0.77
2023-02-19T21:24:20.700Z,-0.78
2023-02-19T21:26:48.625Z,-0.77
2023-02-19T21:29:19.050Z,-0.77
2023-02-19T21:31:49.339Z,-0.82
2023-02-19T21:34:19.474Z,-0.82
2023-02-19T21:36:47.300Z,-0.86
2023-02-19T21:39:17.830Z,-0.88
2023-02-19T21:41:47.617Z,-1.10
2023-02-19T21:44:15.859Z,-0.90
2023-02-19T21:46:43.933Z,-0.91
2023-02-19T21:49:12.907Z,-0.93
2023-02-19T21:51:42.728Z,-0.95
2023-02-19T21:54:16.153Z,-1.21
2023-02-19T21:56:44.032Z,-0.96
2023-02-19T21:59:13.240Z,-1.00
2023-02-19T22:01:43.306Z,-1.15
2023-02-19T22:04:14.763Z,-1.02
2023-02-19T22:06:43.494Z,-1.16
2023-02-19T22:09:12.790Z,-1.06
2023-02-19T22:11:40.661Z,-1.10
2023-02-19T22:14:09.002Z,-1.12
2023-02-19T22:16:38.542Z,-1.15
2023-02-19T22:19:06.485Z,-1.90
2023-02-19T22:21:34.680Z,-1.18
2023-02-19T22:24:03.987Z,-1.19
2023-02-19T22:26:35.009Z,-1.32
2023-02-19T22:29:07.371Z,-1.40
2023-02-19T22:31:36.342Z,-1.27
2023-02-19T22:34:06.363Z,-1.29
2023-02-19T22:36:37.450Z,-1.28
2023-02-19T22:39:06.493Z,-1.29
2023-02-19T22:41:34.464Z,-1.33
2023-02-19T22:44:02.876Z,-1.35
2023-02-19T22:46:31.788Z,-1.37
2023-02-19T22:48:59.987Z,-1.66
2023-02-19T22:51:30.160Z,-1.38
2023-02-19T22:53:59.951Z,-1.38
2023-02-19T22:56:29.217Z,-1.40
2023-02-19T22:58:58.584Z,-1.40
2023-02-19T23:01:26.893Z,-1.43
2023-02-19T23:03:56.925Z,-1.45
2023-02-19T23:06:26.992Z,-1.47
2023-02-19T23:08:58.267Z,-1.48
2023-02-19T23:11:28.321Z,-1.50
2023-02-19T23:13:56.872Z,-1.61
2023-02-19T23:16:24.954Z,-1.53
2023-02-19T23:18:53.306Z,-1.54
2023-02-19T23:21:21.846Z,-1.55
2023-02-19T23:23:49.723Z,-1.65
2023-02-19T23:26:19.064Z,-1.58
2023-02-19T23:28:47.393Z,-2.10
2023-02-19T23:31:15.984Z,-1.60
2023-02-19T23:33:45.354Z,-1.63
2023-02-19T23:36:14.435Z,-1.72
2023-02-19T23:38:45.350Z,-1.81
2023-02-19T23:41:15.927Z,-1.64
2023-02-19T23:43:46.106Z,-1.81
2023-02-19T23:46:17.769Z,-1.69
2023-02-19T23:48:46.134Z,-1.75
2023-02-19T23:51:14.498Z,-1.72
2023-02-19T23:53:42.483Z,-1.72
2023-02-19T23:56:14.231Z,-1.72
2023-02-19T23:58:46.369Z,-1.74
